sensor_id;sensor_type;location;lat;lon;timestamp;P1;durP1;ratioP1;P2;durP2;ratioP2
2698;SDS011;1359;51.798;12.174;2022-10-16T00:00:25;3.67;;;3.25;;
2698;SDS011;1359;51.798;12.174;2022-10-16T00:02:51;5.13;;;3.50;;
2698;SDS011;1359;51.798;12.174;2022-10-16T00:05:16;3.77;;;3.47;;
2698;SDS011;1359;51.798;12.174;2022-10-16T00:07:41;4.07;;;3.30;;
2698;SDS011;1359;51.798;12.174;2022-10-16T00:10:06;3.57;;;3.27;;
2698;SDS011;1359;51.798;12.174;2022-10-16T00:12:32;4.20;;;2.83;;
2698;SDS011;1359;51.798;12.174;2022-10-16T00:14:57;5.40;;;2.93;;
2698;SDS011;1359;51.798;12.174;2022-10-16T00:17:22;3.33;;;3.03;;
2698;SDS011;1359;51.798;12.174;2022-10-16T00:19:47;4.25;;;2.70;;
2698;SDS011;1359;51.798;12.174;2022-10-16T00:22:12;3.10;;;2.90;;
2698;SDS011;1359;51.798;12.174;2022-10-16T00:24:37;3.20;;;2.75;;
2698;SDS011;1359;51.798;12.174;2022-10-16T00:27:03;2.97;;;2.67;;
2698;SDS011;1359;51.798;12.174;2022-10-16T00:29:28;3.80;;;2.93;;
2698;SDS011;1359;51.798;12.174;2022-10-16T00:31:53;3.33;;;3.00;;
2698;SDS011;1359;51.798;12.174;2022-10-16T00:34:18;3.27;;;2.97;;
2698;SDS011;1359;51.798;12.174;2022-10-16T00:36:43;5.87;;;2.83;;
2698;SDS011;1359;51.798;12.174;2022-10-16T00:39:08;2.83;;;2.63;;
2698;SDS011;1359;51.798;12.174;2022-10-16T00:41:34;2.80;;;2.57;;
2698;SDS011;1359;51.798;12.174;2022-10-16T00:43:59;3.10;;;2.90;;
2698;SDS011;1359;51.798;12.174;2022-10-16T00:46:41;2.90;;;2.60;;
2698;SDS011;1359;51.798;12.174;2022-10-16T00:49:08;2.73;;;2.53;;
2698;SDS011;1359;51.798;12.174;2022-10-16T00:51:35;2.80;;;2.60;;
2698;SDS011;1359;51.798;12.174;2022-10-16T00:54:01;2.17;;;1.97;;
2698;SDS011;1359;51.798;12.174;2022-10-16T00:56:27;2.67;;;2.20;;
2698;SDS011;1359;51.798;12.174;2022-10-16T00:58:52;2.40;;;2.20;;
2698;SDS011;1359;51.798;12.174;2022-10-16T01:01:17;2.60;;;2.17;;
2698;SDS011;1359;51.798;12.174;2022-10-16T01:03:42;2.83;;;2.50;;
2698;SDS011;1359;51.798;12.174;2022-10-16T01:11:25;3.97;;;2.13;;
2698;SDS011;1359;51.798;12.174;2022-10-16T01:13:55;2.83;;;2.63;;
2698;SDS011;1359;51.798;12.174;2022-10-16T01:18:57;3.00;;;2.57;;
2698;SDS011;1359;51.798;12.174;2022-10-16T01:22:05;2.40;;;2.20;;
2698;SDS011;1359;51.798;12.174;2022-10-16T01:24:15;3.20;;;2.60;;
2698;SDS011;1359;51.798;12.174;2022-10-16T01:29:27;2.60;;;2.40;;
2698;SDS011;1359;51.798;12.174;2022-10-16T01:31:56;3.10;;;2.10;;
2698;SDS011;1359;51.798;12.174;2022-10-16T01:34:25;2.60;;;2.33;;
2698;SDS011;1359;51.798;12.174;2022-10-16T01:36:56;3.17;;;2.67;;
2698;SDS011;1359;51.798;12.174;2022-10-16T01:39:23;5.07;;;2.67;;
2698;SDS011;1359;51.798;12.174;2022-10-16T01:41:51;2.90;;;2.47;;
2698;SDS011;1359;51.798;12.174;2022-10-16T01:44:22;3.87;;;2.30;;
2698;SDS011;1359;51.798;12.174;2022-10-16T01:46:50;4.33;;;2.30;;
2698;SDS011;1359;51.798;12.174;2022-10-16T01:49:15;3.83;;;2.10;;
2698;SDS011;1359;51.798;12.174;2022-10-16T01:51:42;2.63;;;2.43;;
2698;SDS011;1359;51.798;12.174;2022-10-16T01:54:08;3.17;;;2.87;;
2698;SDS011;1359;51.798;12.174;2022-10-16T01:56:34;2.63;;;2.43;;
2698;SDS011;1359;51.798;12.174;2022-10-16T01:59:05;4.67;;;2.10;;
2698;SDS011;1359;51.798;12.174;2022-10-16T02:01:31;2.80;;;2.50;;
2698;SDS011;1359;51.798;12.174;2022-10-16T02:03:58;3.00;;;2.50;;
2698;SDS011;1359;51.798;12.174;2022-10-16T02:06:26;3.10;;;2.70;;
2698;SDS011;1359;51.798;12.174;2022-10-16T02:08:51;2.77;;;2.57;;
2698;SDS011;1359;51.798;12.174;2022-10-16T02:11:16;2.53;;;2.33;;
2698;SDS011;1359;51.798;12.174;2022-10-16T02:13:43;2.07;;;1.87;;
2698;SDS011;1359;51.798;12.174;2022-10-16T02:16:10;3.40;;;2.67;;
2698;SDS011;1359;51.798;12.174;2022-10-16T02:18:35;2.60;;;2.40;;
2698;SDS011;1359;51.798;12.174;2022-10-16T02:21:02;2.90;;;2.60;;
2698;SDS011;1359;51.798;12.174;2022-10-16T02:24:17;2.00;;;1.80;;
2698;SDS011;1359;51.798;12.174;2022-10-16T02:26:21;2.20;;;1.90;;
2698;SDS011;1359;51.798;12.174;2022-10-16T02:28:50;3.70;;;2.30;;
2698;SDS011;1359;51.798;12.174;2022-10-16T02:31:18;2.40;;;2.20;;
2698;SDS011;1359;51.798;12.174;2022-10-16T02:33:47;4.07;;;2.10;;
2698;SDS011;1359;51.798;12.174;2022-10-16T02:36:13;2.60;;;2.40;;
2698;SDS011;1359;51.798;12.174;2022-10-16T02:38:38;3.70;;;2.20;;
2698;SDS011;1359;51.798;12.174;2022-10-16T02:41:04;3.07;;;2.73;;
2698;SDS011;1359;51.798;12.174;2022-10-16T02:43:29;3.47;;;2.67;;
2698;SDS011;1359;51.798;12.174;2022-10-16T02:45:55;2.20;;;2.00;;
2698;SDS011;1359;51.798;12.174;2022-10-16T02:48:20;2.77;;;2.53;;
2698;SDS011;1359;51.798;12.174;2022-10-16T02:50:45;2.83;;;2.63;;
2698;SDS011;1359;51.798;12.174;2022-10-16T02:53:11;2.80;;;2.20;;
2698;SDS011;1359;51.798;12.174;2022-10-16T02:55:36;7.47;;;2.28;;
2698;SDS011;1359;51.798;12.174;2022-10-16T02:58:01;2.23;;;2.03;;
2698;SDS011;1359;51.798;12.174;2022-10-16T03:00:26;2.70;;;2.50;;
2698;SDS011;1359;51.798;12.174;2022-10-16T03:02:51;3.17;;;2.53;;
2698;SDS011;1359;51.798;12.174;2022-10-16T03:05:16;3.03;;;2.30;;
2698;SDS011;1359;51.798;12.174;2022-10-16T03:07:42;3.63;;;2.30;;
2698;SDS011;1359;51.798;12.174;2022-10-16T03:10:07;3.17;;;2.60;;
2698;SDS011;1359;51.798;12.174;2022-10-16T03:12:32;2.73;;;2.53;;
2698;SDS011;1359;51.798;12.174;2022-10-16T03:14:58;3.70;;;2.38;;
2698;SDS011;1359;51.798;12.174;2022-10-16T03:17:23;2.87;;;2.67;;
2698;SDS011;1359;51.798;12.174;2022-10-16T03:19:48;2.67;;;2.40;;
2698;SDS011;1359;51.798;12.174;2022-10-16T03:22:14;2.53;;;2.27;;
2698;SDS011;1359;51.798;12.174;2022-10-16T03:24:39;2.30;;;2.10;;
2698;SDS011;1359;51.798;12.174;2022-10-16T03:27:04;2.80;;;2.60;;
2698;SDS011;1359;51.798;12.174;2022-10-16T03:29:29;3.90;;;2.70;;
2698;SDS011;1359;51.798;12.174;2022-10-16T03:31:55;2.43;;;2.23;;
2698;SDS011;1359;51.798;12.174;2022-10-16T03:34:20;2.40;;;2.20;;
2698;SDS011;1359;51.798;12.174;2022-10-16T03:36:45;2.17;;;1.97;;
2698;SDS011;1359;51.798;12.174;2022-10-16T03:39:10;2.70;;;2.50;;
2698;SDS011;1359;51.798;12.174;2022-10-16T03:41:36;2.27;;;2.07;;
2698;SDS011;1359;51.798;12.174;2022-10-16T03:44:01;2.28;;;1.98;;
2698;SDS011;1359;51.798;12.174;2022-10-16T03:46:26;2.95;;;2.63;;
2698;SDS011;1359;51.798;12.174;2022-10-16T03:48:51;2.50;;;2.30;;
2698;SDS011;1359;51.798;12.174;2022-10-16T03:51:16;2.55;;;2.35;;
2698;SDS011;1359;51.798;12.174;2022-10-16T03:53:41;2.70;;;2.47;;
2698;SDS011;1359;51.798;12.174;2022-10-16T03:56:07;5.13;;;2.60;;
2698;SDS011;1359;51.798;12.174;2022-10-16T03:58:32;2.80;;;2.50;;
2698;SDS011;1359;51.798;12.174;2022-10-16T04:00:57;2.37;;;2.17;;
2698;SDS011;1359;51.798;12.174;2022-10-16T04:03:22;16.53;;;2.77;;
2698;SDS011;1359;51.798;12.174;2022-10-16T04:05:48;2.53;;;2.20;;
2698;SDS011;1359;51.798;12.174;2022-10-16T04:08:13;2.47;;;2.27;;
2698;SDS011;1359;51.798;12.174;2022-10-16T04:10:38;3.15;;;2.95;;
2698;SDS011;1359;51.798;12.174;2022-10-16T04:13:03;5.18;;;2.47;;
2698;SDS011;1359;51.798;12.174;2022-10-16T04:15:28;2.33;;;2.07;;
2698;SDS011;1359;51.798;12.174;2022-10-16T04:17:53;3.87;;;2.30;;
2698;SDS011;1359;51.798;12.174;2022-10-16T04:20:18;2.40;;;2.20;;
2698;SDS011;1359;51.798;12.174;2022-10-16T04:22:44;3.08;;;2.75;;
2698;SDS011;1359;51.798;12.174;2022-10-16T04:25:09;2.33;;;2.13;;
2698;SDS011;1359;51.798;12.174;2022-10-16T04:27:34;2.93;;;2.70;;
2698;SDS011;1359;51.798;12.174;2022-10-16T04:30:00;3.40;;;2.47;;
2698;SDS011;1359;51.798;12.174;2022-10-16T04:32:25;5.57;;;2.73;;
2698;SDS011;1359;51.798;12.174;2022-10-16T04:34:51;3.20;;;2.73;;
2698;SDS011;1359;51.798;12.174;2022-10-16T04:37:16;2.80;;;2.50;;
2698;SDS011;1359;51.798;12.174;2022-10-16T04:39:41;5.90;;;2.83;;
2698;SDS011;1359;51.798;12.174;2022-10-16T04:42:06;2.33;;;2.13;;
2698;SDS011;1359;51.798;12.174;2022-10-16T04:44:31;3.10;;;2.90;;
2698;SDS011;1359;51.798;12.174;2022-10-16T04:46:57;2.45;;;2.25;;
2698;SDS011;1359;51.798;12.174;2022-10-16T04:49:22;2.40;;;2.20;;
2698;SDS011;1359;51.798;12.174;2022-10-16T04:51:47;4.32;;;3.75;;
2698;SDS011;1359;51.798;12.174;2022-10-16T04:54:12;3.10;;;2.90;;
2698;SDS011;1359;51.798;12.174;2022-10-16T04:56:37;5.93;;;3.30;;
2698;SDS011;1359;51.798;12.174;2022-10-16T04:59:10;3.70;;;3.40;;
2698;SDS011;1359;51.798;12.174;2022-10-16T05:01:36;3.20;;;2.27;;
2698;SDS011;1359;51.798;12.174;2022-10-16T05:04:01;4.17;;;2.33;;
2698;SDS011;1359;51.798;12.174;2022-10-16T05:06:26;2.50;;;2.30;;
2698;SDS011;1359;51.798;12.174;2022-10-16T05:08:51;2.83;;;2.63;;
2698;SDS011;1359;51.798;12.174;2022-10-16T05:11:17;2.60;;;2.40;;
2698;SDS011;1359;51.798;12.174;2022-10-16T05:13:42;2.93;;;2.73;;
2698;SDS011;1359;51.798;12.174;2022-10-16T05:16:07;2.40;;;2.20;;
2698;SDS011;1359;51.798;12.174;2022-10-16T05:18:32;3.07;;;2.87;;
2698;SDS011;1359;51.798;12.174;2022-10-16T05:20:57;3.70;;;3.37;;
2698;SDS011;1359;51.798;12.174;2022-10-16T05:23:22;3.80;;;2.85;;
2698;SDS011;1359;51.798;12.174;2022-10-16T05:25:54;3.20;;;3.00;;
2698;SDS011;1359;51.798;12.174;2022-10-16T05:28:20;3.53;;;3.00;;
2698;SDS011;1359;51.798;12.174;2022-10-16T05:30:45;3.57;;;3.27;;
2698;SDS011;1359;51.798;12.174;2022-10-16T05:33:10;3.00;;;2.80;;
2698;SDS011;1359;51.798;12.174;2022-10-16T05:35:35;2.58;;;2.35;;
2698;SDS011;1359;51.798;12.174;2022-10-16T05:38:01;3.40;;;3.10;;
2698;SDS011;1359;51.798;12.174;2022-10-16T05:40:26;3.67;;;3.03;;
2698;SDS011;1359;51.798;12.174;2022-10-16T05:42:54;2.77;;;2.57;;
2698;SDS011;1359;51.798;12.174;2022-10-16T05:45:19;3.67;;;2.90;;
2698;SDS011;1359;51.798;12.174;2022-10-16T05:47:44;2.88;;;2.67;;
2698;SDS011;1359;51.798;12.174;2022-10-16T05:50:09;7.20;;;6.70;;
2698;SDS011;1359;51.798;12.174;2022-10-16T05:52:34;8.50;;;7.60;;
2698;SDS011;1359;51.798;12.174;2022-10-16T05:55:00;5.40;;;4.90;;
2698;SDS011;1359;51.798;12.174;2022-10-16T05:57:25;3.07;;;2.87;;
2698;SDS011;1359;51.798;12.174;2022-10-16T05:59:50;3.77;;;3.47;;
2698;SDS011;1359;51.798;12.174;2022-10-16T06:02:15;5.78;;;4.75;;
2698;SDS011;1359;51.798;12.174;2022-10-16T06:04:40;5.27;;;3.77;;
2698;SDS011;1359;51.798;12.174;2022-10-16T06:07:06;4.00;;;3.70;;
2698;SDS011;1359;51.798;12.174;2022-10-16T06:09:31;3.88;;;3.47;;
2698;SDS011;1359;51.798;12.174;2022-10-16T06:11:56;3.33;;;3.10;;
2698;SDS011;1359;51.798;12.174;2022-10-16T06:14:21;7.07;;;3.10;;
2698;SDS011;1359;51.798;12.174;2022-10-16T06:16:46;3.80;;;3.40;;
2698;SDS011;1359;51.798;12.174;2022-10-16T06:19:11;6.00;;;5.30;;
2698;SDS011;1359;51.798;12.174;2022-10-16T06:21:37;3.47;;;3.17;;
2698;SDS011;1359;51.798;12.174;2022-10-16T06:24:02;5.00;;;4.50;;
2698;SDS011;1359;51.798;12.174;2022-10-16T06:26:28;4.73;;;3.83;;
2698;SDS011;1359;51.798;12.174;2022-10-16T06:28:54;4.20;;;3.63;;
2698;SDS011;1359;51.798;12.174;2022-10-16T06:31:19;3.80;;;3.27;;
2698;SDS011;1359;51.798;12.174;2022-10-16T06:33:44;5.37;;;3.03;;
2698;SDS011;1359;51.798;12.174;2022-10-16T06:36:12;3.00;;;2.80;;
2698;SDS011;1359;51.798;12.174;2022-10-16T06:38:39;3.10;;;2.90;;
2698;SDS011;1359;51.798;12.174;2022-10-16T06:41:04;11.80;;;3.97;;
2698;SDS011;1359;51.798;12.174;2022-10-16T06:43:30;3.93;;;3.17;;
2698;SDS011;1359;51.798;12.174;2022-10-16T06:46:00;4.17;;;3.77;;
2698;SDS011;1359;51.798;12.174;2022-10-16T06:48:26;4.10;;;3.37;;
2698;SDS011;1359;51.798;12.174;2022-10-16T06:51:24;3.17;;;2.97;;
2698;SDS011;1359;51.798;12.174;2022-10-16T06:53:44;3.27;;;2.97;;
2698;SDS011;1359;51.798;12.174;2022-10-16T06:58:37;5.27;;;2.83;;
2698;SDS011;1359;51.798;12.174;2022-10-16T07:01:03;2.90;;;2.70;;
2698;SDS011;1359;51.798;12.174;2022-10-16T07:03:29;3.30;;;3.03;;
2698;SDS011;1359;51.798;12.174;2022-10-16T07:05:54;2.93;;;2.73;;
2698;SDS011;1359;51.798;12.174;2022-10-16T07:08:19;5.93;;;2.97;;
2698;SDS011;1359;51.798;12.174;2022-10-16T07:10:44;4.87;;;2.87;;
2698;SDS011;1359;51.798;12.174;2022-10-16T07:13:09;2.87;;;2.67;;
2698;SDS011;1359;51.798;12.174;2022-10-16T07:15:38;2.70;;;2.50;;
2698;SDS011;1359;51.798;12.174;2022-10-16T07:18:03;3.17;;;2.97;;
2698;SDS011;1359;51.798;12.174;2022-10-16T07:20:28;3.80;;;3.00;;
2698;SDS011;1359;51.798;12.174;2022-10-16T07:22:53;3.13;;;2.93;;
2698;SDS011;1359;51.798;12.174;2022-10-16T07:25:18;6.87;;;5.33;;
2698;SDS011;1359;51.798;12.174;2022-10-16T07:27:44;5.10;;;3.23;;
2698;SDS011;1359;51.798;12.174;2022-10-16T07:30:09;4.43;;;3.53;;
2698;SDS011;1359;51.798;12.174;2022-10-16T07:32:34;3.37;;;2.47;;
2698;SDS011;1359;51.798;12.174;2022-10-16T07:34:59;3.42;;;3.13;;
2698;SDS011;1359;51.798;12.174;2022-10-16T07:37:24;3.72;;;3.47;;
2698;SDS011;1359;51.798;12.174;2022-10-16T07:39:49;3.13;;;2.93;;
2698;SDS011;1359;51.798;12.174;2022-10-16T07:42:15;4.20;;;2.60;;
2698;SDS011;1359;51.798;12.174;2022-10-16T07:44:40;2.90;;;2.50;;
2698;SDS011;1359;51.798;12.174;2022-10-16T07:47:05;3.43;;;3.20;;
2698;SDS011;1359;51.798;12.174;2022-10-16T07:49:31;2.83;;;2.60;;
2698;SDS011;1359;51.798;12.174;2022-10-16T07:51:56;4.93;;;2.83;;
2698;SDS011;1359;51.798;12.174;2022-10-16T07:54:21;3.43;;;3.13;;
2698;SDS011;1359;51.798;12.174;2022-10-16T07:56:46;6.80;;;4.70;;
2698;SDS011;1359;51.798;12.174;2022-10-16T07:59:11;2.93;;;2.67;;
2698;SDS011;1359;51.798;12.174;2022-10-16T08:01:37;3.20;;;3.00;;
2698;SDS011;1359;51.798;12.174;2022-10-16T08:04:02;4.87;;;2.90;;
2698;SDS011;1359;51.798;12.174;2022-10-16T08:06:27;3.33;;;3.07;;
2698;SDS011;1359;51.798;12.174;2022-10-16T08:08:52;2.70;;;2.50;;
2698;SDS011;1359;51.798;12.174;2022-10-16T08:11:17;3.07;;;2.77;;
2698;SDS011;1359;51.798;12.174;2022-10-16T08:13:43;3.30;;;3.03;;
2698;SDS011;1359;51.798;12.174;2022-10-16T08:16:08;5.50;;;2.53;;
2698;SDS011;1359;51.798;12.174;2022-10-16T08:18:34;4.83;;;2.60;;
2698;SDS011;1359;51.798;12.174;2022-10-16T08:21:00;4.23;;;2.70;;
2698;SDS011;1359;51.798;12.174;2022-10-16T08:23:26;2.70;;;2.50;;
2698;SDS011;1359;51.798;12.174;2022-10-16T08:25:54;3.53;;;3.33;;
2698;SDS011;1359;51.798;12.174;2022-10-16T08:28:20;4.67;;;3.00;;
2698;SDS011;1359;51.798;12.174;2022-10-16T08:30:45;2.70;;;2.30;;
2698;SDS011;1359;51.798;12.174;2022-10-16T08:33:10;2.63;;;2.43;;
2698;SDS011;1359;51.798;12.174;2022-10-16T08:35:36;6.60;;;2.80;;
2698;SDS011;1359;51.798;12.174;2022-10-16T08:38:04;5.93;;;2.03;;
2698;SDS011;1359;51.798;12.174;2022-10-16T08:40:29;2.20;;;2.00;;
2698;SDS011;1359;51.798;12.174;2022-10-16T08:50:43;2.70;;;2.50;;
2698;SDS011;1359;51.798;12.174;2022-10-16T08:53:17;3.00;;;2.80;;
2698;SDS011;1359;51.798;12.174;2022-10-16T08:55:45;2.30;;;2.10;;
2698;SDS011;1359;51.798;12.174;2022-10-16T08:58:18;3.63;;;2.23;;
2698;SDS011;1359;51.798;12.174;2022-10-16T09:00:45;3.50;;;2.40;;
2698;SDS011;1359;51.798;12.174;2022-10-16T09:03:17;5.20;;;2.30;;
2698;SDS011;1359;51.798;12.174;2022-10-16T09:06:07;2.40;;;2.20;;
2698;SDS011;1359;51.798;12.174;2022-10-16T09:11:13;4.37;;;2.50;;
2698;SDS011;1359;51.798;12.174;2022-10-16T09:13:45;8.63;;;2.70;;
2698;SDS011;1359;51.798;12.174;2022-10-16T09:18:57;2.93;;;2.73;;
2698;SDS011;1359;51.798;12.174;2022-10-16T09:21:25;3.07;;;2.67;;
2698;SDS011;1359;51.798;12.174;2022-10-16T09:23:51;2.60;;;2.40;;
2698;SDS011;1359;51.798;12.174;2022-10-16T09:26:17;2.87;;;2.67;;
2698;SDS011;1359;51.798;12.174;2022-10-16T09:28:44;2.83;;;2.63;;
2698;SDS011;1359;51.798;12.174;2022-10-16T09:31:13;5.20;;;2.80;;
2698;SDS011;1359;51.798;12.174;2022-10-16T09:33:40;2.70;;;2.50;;
2698;SDS011;1359;51.798;12.174;2022-10-16T09:36:05;3.00;;;2.67;;
2698;SDS011;1359;51.798;12.174;2022-10-16T09:38:35;2.57;;;2.37;;
2698;SDS011;1359;51.798;12.174;2022-10-16T09:41:02;2.53;;;2.30;;
2698;SDS011;1359;51.798;12.174;2022-10-16T09:43:34;2.17;;;1.97;;
2698;SDS011;1359;51.798;12.174;2022-10-16T09:46:04;2.50;;;2.30;;
2698;SDS011;1359;51.798;12.174;2022-10-16T09:48:33;2.57;;;2.37;;
2698;SDS011;1359;51.798;12.174;2022-10-16T09:50:59;2.20;;;2.00;;
2698;SDS011;1359;51.798;12.174;2022-10-16T09:53:26;4.83;;;2.67;;
2698;SDS011;1359;51.798;12.174;2022-10-16T09:56:02;2.37;;;2.17;;
2698;SDS011;1359;51.798;12.174;2022-10-16T09:58:28;4.13;;;2.33;;
2698;SDS011;1359;51.798;12.174;2022-10-16T10:00:54;2.13;;;1.92;;
2698;SDS011;1359;51.798;12.174;2022-10-16T10:03:26;2.00;;;1.80;;
2698;SDS011;1359;51.798;12.174;2022-10-16T10:05:55;3.60;;;2.50;;
2698;SDS011;1359;51.798;12.174;2022-10-16T10:08:20;2.00;;;1.70;;
2698;SDS011;1359;51.798;12.174;2022-10-16T10:10:45;2.13;;;1.93;;
2698;SDS011;1359;51.798;12.174;2022-10-16T10:13:19;2.50;;;2.30;;
2698;SDS011;1359;51.798;12.174;2022-10-16T10:15:45;2.13;;;1.93;;
2698;SDS011;1359;51.798;12.174;2022-10-16T10:18:17;2.23;;;2.03;;
2698;SDS011;1359;51.798;12.174;2022-10-16T10:20:43;1.97;;;1.50;;
2698;SDS011;1359;51.798;12.174;2022-10-16T10:23:22;2.17;;;1.97;;
2698;SDS011;1359;51.798;12.174;2022-10-16T10:33:28;3.00;;;2.20;;
2698;SDS011;1359;51.798;12.174;2022-10-16T10:35:58;2.60;;;1.73;;
2698;SDS011;1359;51.798;12.174;2022-10-16T10:38:36;3.93;;;2.70;;
2698;SDS011;1359;51.798;12.174;2022-10-16T10:43:44;2.87;;;1.77;;
2698;SDS011;1359;51.798;12.174;2022-10-16T10:46:19;1.70;;;1.40;;
2698;SDS011;1359;51.798;12.174;2022-10-16T10:48:53;3.43;;;2.00;;
2698;SDS011;1359;51.798;12.174;2022-10-16T10:51:25;1.70;;;1.60;;
2698;SDS011;1359;51.798;12.174;2022-10-16T10:56:41;7.30;;;1.77;;
2698;SDS011;1359;51.798;12.174;2022-10-16T11:01:45;1.70;;;1.40;;
2698;SDS011;1359;51.798;12.174;2022-10-16T11:06:59;2.30;;;1.57;;
2698;SDS011;1359;51.798;12.174;2022-10-16T11:09:25;1.93;;;1.73;;
2698;SDS011;1359;51.798;12.174;2022-10-16T11:11:54;1.80;;;1.47;;
2698;SDS011;1359;51.798;12.174;2022-10-16T11:14:34;3.20;;;1.40;;
2698;SDS011;1359;51.798;12.174;2022-10-16T11:17:02;2.00;;;1.70;;
2698;SDS011;1359;51.798;12.174;2022-10-16T11:24:51;4.60;;;2.30;;
2698;SDS011;1359;51.798;12.174;2022-10-16T11:27:33;2.63;;;1.63;;
2698;SDS011;1359;51.798;12.174;2022-10-16T11:29:59;3.10;;;1.63;;
2698;SDS011;1359;51.798;12.174;2022-10-16T11:32:28;1.93;;;1.60;;
2698;SDS011;1359;51.798;12.174;2022-10-16T11:34:57;1.60;;;1.43;;
2698;SDS011;1359;51.798;12.174;2022-10-16T11:37:25;1.70;;;1.53;;
2698;SDS011;1359;51.798;12.174;2022-10-16T11:39:53;1.60;;;1.50;;
2698;SDS011;1359;51.798;12.174;2022-10-16T11:44:46;2.25;;;1.58;;
2698;SDS011;1359;51.798;12.174;2022-10-16T11:47:22;1.53;;;1.27;;
2698;SDS011;1359;51.798;12.174;2022-10-16T11:49:49;1.93;;;1.57;;
2698;SDS011;1359;51.798;12.174;2022-10-16T11:52:23;1.57;;;1.23;;
2698;SDS011;1359;51.798;12.174;2022-10-16T11:54:52;2.03;;;1.60;;
2698;SDS011;1359;51.798;12.174;2022-10-16T11:58:01;2.20;;;1.50;;
2698;SDS011;1359;51.798;12.174;2022-10-16T12:00:14;2.40;;;1.80;;
2698;SDS011;1359;51.798;12.174;2022-10-16T12:05:23;2.40;;;1.80;;
2698;SDS011;1359;51.798;12.174;2022-10-16T12:07:51;1.83;;;1.20;;
2698;SDS011;1359;51.798;12.174;2022-10-16T12:10:24;1.60;;;1.50;;
2698;SDS011;1359;51.798;12.174;2022-10-16T12:12:49;2.80;;;1.30;;
2698;SDS011;1359;51.798;12.174;2022-10-16T12:15:28;1.90;;;1.50;;
2698;SDS011;1359;51.798;12.174;2022-10-16T12:17:53;1.60;;;1.37;;
2698;SDS011;1359;51.798;12.174;2022-10-16T12:20:21;1.60;;;1.40;;
2698;SDS011;1359;51.798;12.174;2022-10-16T12:22:51;1.60;;;1.47;;
2698;SDS011;1359;51.798;12.174;2022-10-16T12:27:53;2.13;;;1.93;;
2698;SDS011;1359;51.798;12.174;2022-10-16T12:30:20;2.47;;;2.20;;
2698;SDS011;1359;51.798;12.174;2022-10-16T12:32:52;2.47;;;1.47;;
2698;SDS011;1359;51.798;12.174;2022-10-16T12:35:25;2.27;;;1.80;;
2698;SDS011;1359;51.798;12.174;2022-10-16T12:37:51;2.07;;;1.63;;
2698;SDS011;1359;51.798;12.174;2022-10-16T12:40:31;4.23;;;1.50;;
2698;SDS011;1359;51.798;12.174;2022-10-16T12:42:57;3.57;;;1.60;;
2698;SDS011;1359;51.798;12.174;2022-10-16T12:45:32;1.57;;;1.30;;
2698;SDS011;1359;51.798;12.174;2022-10-16T12:47:58;1.50;;;1.10;;
2698;SDS011;1359;51.798;12.174;2022-10-16T12:50:28;1.70;;;1.57;;
2698;SDS011;1359;51.798;12.174;2022-10-16T12:52:55;1.87;;;1.60;;
2698;SDS011;1359;51.798;12.174;2022-10-16T12:55:21;6.23;;;1.60;;
2698;SDS011;1359;51.798;12.174;2022-10-16T12:58:02;2.57;;;1.47;;
2698;SDS011;1359;51.798;12.174;2022-10-16T13:00:33;2.10;;;1.50;;
2698;SDS011;1359;51.798;12.174;2022-10-16T13:05:35;1.80;;;1.57;;
2698;SDS011;1359;51.798;12.174;2022-10-16T13:21:14;2.07;;;1.27;;
2698;SDS011;1359;51.798;12.174;2022-10-16T13:23:48;2.77;;;1.20;;
2698;SDS011;1359;51.798;12.174;2022-10-16T13:28:50;1.60;;;1.20;;
2698;SDS011;1359;51.798;12.174;2022-10-16T13:31:19;1.50;;;1.10;;
2698;SDS011;1359;51.798;12.174;2022-10-16T13:33:47;2.00;;;1.20;;
2698;SDS011;1359;51.798;12.174;2022-10-16T13:36:23;4.80;;;1.73;;
2698;SDS011;1359;51.798;12.174;2022-10-16T13:38:48;1.70;;;1.60;;
2698;SDS011;1359;51.798;12.174;2022-10-16T13:41:24;1.73;;;1.37;;
2698;SDS011;1359;51.798;12.174;2022-10-16T13:43:50;3.60;;;1.40;;
2698;SDS011;1359;51.798;12.174;2022-10-16T13:46:23;1.90;;;1.40;;
2698;SDS011;1359;51.798;12.174;2022-10-16T13:48:58;1.60;;;1.07;;
2698;SDS011;1359;51.798;12.174;2022-10-16T13:51:23;1.60;;;1.00;;
2698;SDS011;1359;51.798;12.174;2022-10-16T13:53:49;1.60;;;1.30;;
2698;SDS011;1359;51.798;12.174;2022-10-16T13:56:18;1.57;;;1.17;;
2698;SDS011;1359;51.798;12.174;2022-10-16T13:58:44;1.70;;;0.97;;
2698;SDS011;1359;51.798;12.174;2022-10-16T14:01:25;1.40;;;1.13;;
2698;SDS011;1359;51.798;12.174;2022-10-16T14:03:52;1.53;;;1.13;;
2698;SDS011;1359;51.798;12.174;2022-10-16T14:06:19;1.53;;;1.17;;
2698;SDS011;1359;51.798;12.174;2022-10-16T14:08:48;1.40;;;1.10;;
2698;SDS011;1359;51.798;12.174;2022-10-16T14:11:20;1.40;;;1.00;;
2698;SDS011;1359;51.798;12.174;2022-10-16T14:13:45;2.47;;;1.50;;
2698;SDS011;1359;51.798;12.174;2022-10-16T14:16:15;1.60;;;1.50;;
2698;SDS011;1359;51.798;12.174;2022-10-16T14:18:41;1.67;;;1.37;;
2698;SDS011;1359;51.798;12.174;2022-10-16T14:21:12;1.40;;;0.90;;
2698;SDS011;1359;51.798;12.174;2022-10-16T14:23:37;1.53;;;1.40;;
2698;SDS011;1359;51.798;12.174;2022-10-16T14:28:35;1.67;;;1.10;;
2698;SDS011;1359;51.798;12.174;2022-10-16T14:31:02;1.60;;;1.23;;
2698;SDS011;1359;51.798;12.174;2022-10-16T14:36:10;1.50;;;1.20;;
2698;SDS011;1359;51.798;12.174;2022-10-16T14:38:36;4.30;;;1.10;;
2698;SDS011;1359;51.798;12.174;2022-10-16T14:41:02;1.50;;;1.10;;
2698;SDS011;1359;51.798;12.174;2022-10-16T14:43:38;1.73;;;1.17;;
2698;SDS011;1359;51.798;12.174;2022-10-16T14:46:05;1.50;;;1.10;;
2698;SDS011;1359;51.798;12.174;2022-10-16T14:48:31;1.90;;;1.30;;
2698;SDS011;1359;51.798;12.174;2022-10-16T14:50:57;2.67;;;1.40;;
2698;SDS011;1359;51.798;12.174;2022-10-16T14:53:22;2.07;;;0.97;;
2698;SDS011;1359;51.798;12.174;2022-10-16T14:55:47;1.40;;;0.90;;
2698;SDS011;1359;51.798;12.174;2022-10-16T14:58:16;1.57;;;1.20;;
2698;SDS011;1359;51.798;12.174;2022-10-16T15:00:42;1.60;;;1.00;;
2698;SDS011;1359;51.798;12.174;2022-10-16T15:03:07;2.33;;;1.20;;
2698;SDS011;1359;51.798;12.174;2022-10-16T15:05:33;1.67;;;1.20;;
2698;SDS011;1359;51.798;12.174;2022-10-16T15:07:58;2.63;;;1.10;;
2698;SDS011;1359;51.798;12.174;2022-10-16T15:10:24;1.40;;;1.00;;
2698;SDS011;1359;51.798;12.174;2022-10-16T15:12:50;1.50;;;1.10;;
2698;SDS011;1359;51.798;12.174;2022-10-16T15:17:47;1.97;;;1.30;;
2698;SDS011;1359;51.798;12.174;2022-10-16T15:20:13;1.80;;;1.00;;
2698;SDS011;1359;51.798;12.174;2022-10-16T15:22:38;2.50;;;1.60;;
2698;SDS011;1359;51.798;12.174;2022-10-16T15:25:08;1.80;;;1.38;;
2698;SDS011;1359;51.798;12.174;2022-10-16T15:27:34;5.93;;;1.40;;
2698;SDS011;1359;51.798;12.174;2022-10-16T15:30:05;5.30;;;1.33;;
2698;SDS011;1359;51.798;12.174;2022-10-16T15:32:30;1.90;;;1.50;;
2698;SDS011;1359;51.798;12.174;2022-10-16T15:34:55;2.63;;;1.23;;
2698;SDS011;1359;51.798;12.174;2022-10-16T15:37:20;2.90;;;1.40;;
2698;SDS011;1359;51.798;12.174;2022-10-16T15:39:45;2.33;;;1.20;;
2698;SDS011;1359;51.798;12.174;2022-10-16T15:42:11;4.05;;;1.30;;
2698;SDS011;1359;51.798;12.174;2022-10-16T15:44:36;3.07;;;1.17;;
2698;SDS011;1359;51.798;12.174;2022-10-16T15:47:01;2.73;;;1.17;;
2698;SDS011;1359;51.798;12.174;2022-10-16T15:49:26;1.50;;;1.40;;
2698;SDS011;1359;51.798;12.174;2022-10-16T15:51:51;1.42;;;0.98;;
2698;SDS011;1359;51.798;12.174;2022-10-16T15:54:18;1.60;;;1.23;;
2698;SDS011;1359;51.798;12.174;2022-10-16T15:56:46;1.83;;;1.40;;
2698;SDS011;1359;51.798;12.174;2022-10-16T15:59:11;2.90;;;1.37;;
2698;SDS011;1359;51.798;12.174;2022-10-16T16:01:36;1.90;;;1.63;;
2698;SDS011;1359;51.798;12.174;2022-10-16T16:04:02;1.60;;;1.33;;
2698;SDS011;1359;51.798;12.174;2022-10-16T16:06:28;1.50;;;1.30;;
2698;SDS011;1359;51.798;12.174;2022-10-16T16:08:54;1.67;;;1.37;;
2698;SDS011;1359;51.798;12.174;2022-10-16T16:11:19;4.00;;;1.90;;
2698;SDS011;1359;51.798;12.174;2022-10-16T16:13:45;2.43;;;2.23;;
2698;SDS011;1359;51.798;12.174;2022-10-16T16:16:11;1.50;;;1.20;;
2698;SDS011;1359;51.798;12.174;2022-10-16T16:18:37;2.33;;;1.63;;
2698;SDS011;1359;51.798;12.174;2022-10-16T16:21:02;3.53;;;1.70;;
2698;SDS011;1359;51.798;12.174;2022-10-16T16:23:27;2.17;;;1.63;;